createdAt,value
2022-10-20T00:04:17.296Z,10.60
2022-10-20T00:11:20.405Z,10.60
2022-10-20T00:18:22.979Z,10.60
2022-10-20T00:25:23.712Z,10.60
2022-10-20T00:32:24.233Z,10.60
2022-10-20T00:39:24.956Z,10.60
2022-10-20T00:46:40.162Z,10.60
2022-10-20T00:53:40.699Z,10.60
2022-10-20T01:00:42.889Z,10.60
2022-10-20T01:07:44.089Z,10.60
2022-10-20T01:15:08.262Z,10.60
2022-10-20T01:22:30.783Z,10.60
2022-10-20T01:30:01.521Z,10.60
2022-10-20T01:37:05.971Z,10.70
2022-10-20T01:44:11.006Z,10.70
2022-10-20T01:51:11.600Z,10.80
2022-10-20T01:58:36.679Z,10.80
2022-10-20T02:05:58.180Z,10.80
2022-10-20T02:13:04.211Z,10.80
2022-10-20T02:20:06.866Z,10.80
2022-10-20T02:27:22.517Z,10.80
2022-10-20T02:34:26.403Z,10.90
2022-10-20T02:41:26.626Z,10.90
2022-10-20T02:48:26.942Z,10.80
2022-10-20T02:55:27.452Z,10.80
2022-10-20T03:02:27.780Z,10.80
2022-10-20T03:09:28.368Z,10.80
2022-10-20T03:16:29.181Z,10.80
2022-10-20T03:23:29.583Z,10.90
2022-10-20T03:30:30.123Z,10.90
2022-10-20T03:37:30.476Z,10.90
2022-10-20T03:44:31.332Z,10.90
2022-10-20T03:51:32.804Z,11.00
2022-10-20T03:58:33.597Z,11.00
2022-10-20T04:05:33.966Z,11.00
2022-10-20T04:12:34.926Z,11.10
2022-10-20T04:19:35.449Z,11.10
2022-10-20T04:26:36.865Z,11.10
2022-10-20T04:33:37.792Z,11.10
2022-10-20T04:40:38.208Z,11.10
2022-10-20T04:47:39.295Z,11.20
2022-10-20T04:54:40.147Z,11.20
2022-10-20T05:01:40.920Z,11.20
2022-10-20T05:08:43.795Z,11.30
2022-10-20T05:15:44.692Z,11.30
2022-10-20T05:22:45.305Z,11.30
2022-10-20T05:29:45.812Z,11.40
2022-10-20T05:36:46.538Z,11.40
2022-10-20T05:43:55.020Z,11.50
2022-10-20T05:50:55.335Z,11.50
2022-10-20T05:57:56.032Z,11.50
2022-10-20T06:04:56.756Z,11.50
2022-10-20T06:11:57.003Z,11.40
2022-10-20T06:18:58.431Z,11.40
2022-10-20T06:26:13.702Z,11.40
2022-10-20T06:33:16.759Z,11.50
2022-10-20T06:40:17.381Z,11.50
2022-10-20T06:47:18.118Z,11.50
2022-10-20T06:54:19.097Z,11.60
2022-10-20T07:01:23.982Z,11.70
2022-10-20T07:08:24.504Z,11.70
2022-10-20T07:15:25.090Z,11.80
2022-10-20T07:22:25.622Z,11.90
2022-10-20T07:29:26.083Z,12.00
2022-10-20T07:36:33.535Z,12.10
2022-10-20T07:43:37.657Z,12.20
2022-10-20T07:50:40.375Z,12.30
2022-10-20T07:57:40.990Z,12.40
2022-10-20T08:04:43.958Z,12.50
2022-10-20T08:11:44.774Z,12.60
2022-10-20T08:26:11.369Z,12.80
2022-10-20T08:33:12.204Z,13.00
2022-10-20T08:40:16.832Z,13.20
2022-10-20T08:47:33.372Z,13.30
2022-10-20T08:54:34.579Z,13.50
2022-10-20T09:01:36.155Z,13.60
2022-10-20T09:08:39.351Z,13.70
2022-10-20T09:15:40.534Z,13.80
2022-10-20T09:22:41.495Z,13.80
2022-10-20T09:29:42.150Z,13.80
2022-10-20T09:36:43.460Z,13.80
2022-10-20T09:43:57.155Z,13.90
2022-10-20T09:51:00.294Z,14.00
2022-10-20T09:58:03.679Z,14.10
2022-10-20T10:05:19.837Z,14.20
2022-10-20T10:12:20.669Z,14.20
2022-10-20T10:19:26.722Z,14.30
2022-10-20T10:26:51.906Z,14.20
2022-10-20T10:34:20.496Z,14.00
2022-10-20T10:41:41.716Z,13.90
2022-10-20T10:49:01.020Z,13.80
2022-10-20T10:56:29.288Z,13.70
2022-10-20T11:03:42.989Z,13.60
2022-10-20T11:11:01.156Z,13.60
2022-10-20T11:18:16.949Z,13.50
2022-10-20T11:25:51.655Z,13.40
2022-10-20T11:33:16.578Z,13.30
2022-10-20T11:40:24.533Z,13.30
2022-10-20T11:47:36.454Z,13.30
2022-10-20T11:54:54.234Z,13.20
2022-10-20T12:02:23.294Z,13.20
2022-10-20T12:09:42.209Z,13.20
2022-10-20T12:16:55.002Z,13.10
2022-10-20T12:24:03.192Z,13.10
2022-10-20T12:31:05.341Z,13.10
2022-10-20T12:38:05.504Z,13.10
2022-10-20T12:45:36.136Z,13.10
2022-10-20T12:52:40.097Z,13.20
2022-10-20T12:59:41.020Z,13.20
2022-10-20T13:06:42.112Z,13.30
2022-10-20T13:14:00.026Z,13.30
2022-10-20T13:21:48.763Z,13.40
2022-10-20T13:28:53.306Z,13.60
2022-10-20T13:35:59.435Z,13.70
2022-10-20T13:43:23.888Z,13.90
2022-10-20T13:50:32.919Z,13.90
2022-10-20T13:57:36.015Z,14.00
2022-10-20T14:04:37.242Z,14.20
2022-10-20T14:11:39.570Z,14.80
2022-10-20T14:18:40.114Z,15.40
2022-10-20T14:25:41.541Z,15.70
2022-10-20T14:32:43.967Z,15.90
2022-10-20T14:39:49.707Z,16.00
2022-10-20T14:46:51.115Z,16.10
2022-10-20T14:53:51.751Z,17.20
2022-10-20T15:00:52.578Z,17.20
2022-10-20T15:07:54.406Z,16.20
2022-10-20T15:15:05.781Z,15.50
2022-10-20T15:29:17.630Z,14.90
2022-10-20T15:36:22.784Z,14.80
2022-10-20T15:43:23.340Z,14.70
2022-10-20T15:50:24.890Z,14.60
2022-10-20T15:57:25.136Z,14.50
2022-10-20T16:04:26.682Z,14.40
2022-10-20T16:11:27.217Z,14.30
2022-10-20T16:18:28.336Z,14.20
2022-10-20T16:25:28.857Z,14.10
2022-10-20T16:32:32.942Z,14.00
2022-10-20T16:39:35.939Z,13.90
2022-10-20T16:46:36.400Z,13.80
2022-10-20T16:53:37.485Z,13.80
2022-10-20T17:00:38.006Z,13.80
2022-10-20T17:07:38.858Z,13.80
2022-10-20T17:14:40.658Z,13.70
2022-10-20T17:21:40.946Z,13.70
2022-10-20T17:28:41.876Z,13.70
2022-10-20T17:35:47.653Z,13.60
2022-10-20T17:42:47.858Z,13.60
2022-10-20T17:49:48.138Z,13.60
2022-10-20T17:56:50.367Z,13.70
2022-10-20T18:03:56.055Z,13.70
2022-10-20T18:10:56.328Z,13.70
2022-10-20T18:17:56.744Z,13.60
2022-10-20T18:24:57.148Z,13.60
2022-10-20T18:31:57.937Z,13.60
2022-10-20T18:38:59.338Z,13.60
2022-10-20T18:46:00.972Z,13.70
2022-10-20T18:53:01.259Z,13.60
2022-10-20T19:00:01.602Z,13.60
2022-10-20T19:07:02.106Z,13.70
2022-10-20T19:14:02.849Z,13.70
2022-10-20T19:21:06.354Z,13.70
2022-10-20T19:28:07.016Z,13.70
2022-10-20T19:35:07.660Z,13.70
2022-10-20T19:42:08.187Z,13.80
2022-10-20T19:49:08.918Z,13.80
2022-10-20T19:56:10.804Z,13.80
2022-10-20T20:03:11.818Z,13.70
2022-10-20T20:10:16.226Z,13.80
2022-10-20T20:17:17.489Z,13.80
2022-10-20T20:24:17.798Z,13.80
2022-10-20T20:31:18.610Z,13.80
2022-10-20T20:38:19.367Z,13.80
2022-10-20T20:45:19.743Z,13.70
2022-10-20T20:52:20.059Z,13.80
2022-10-20T20:59:20.480Z,13.80
2022-10-20T21:06:25.686Z,13.90
2022-10-20T21:13:35.329Z,13.90
2022-10-20T21:20:35.602Z,13.90
2022-10-20T21:27:36.201Z,14.00
2022-10-20T21:34:36.633Z,14.10
2022-10-20T21:41:37.235Z,14.20
2022-10-20T21:48:37.601Z,14.20
2022-10-20T21:55:38.032Z,14.20
2022-10-20T22:02:38.406Z,14.30
2022-10-20T22:09:39.549Z,14.30
2022-10-20T22:16:41.557Z,14.30
2022-10-20T22:23:42.937Z,14.30
2022-10-20T22:30:43.456Z,14.30
2022-10-20T22:37:44.032Z,14.30
2022-10-20T22:44:44.553Z,14.30
2022-10-20T22:51:45.063Z,14.30
2022-10-20T22:58:47.572Z,14.30
2022-10-20T23:05:47.901Z,14.30
2022-10-20T23:12:48.652Z,14.40
2022-10-20T23:19:49.055Z,14.30
2022-10-20T23:26:49.841Z,14.30
2022-10-20T23:33:54.082Z,14.30
2022-10-20T23:40:55.049Z,14.40
2022-10-20T23:47:55.581Z,14.40
2022-10-20T23:54:55.884Z,14.40
